sensor_id;sensor_type;location;lat;lon;timestamp;temperature;humidity
5476;DHT22;2760;50.000;9.194;2022-11-25T00:01:53;3.90;99.90
5476;DHT22;2760;50.000;9.194;2022-11-25T00:04:20;3.90;99.90
5476;DHT22;2760;50.000;9.194;2022-11-25T00:06:47;3.90;99.90
5476;DHT22;2760;50.000;9.194;2022-11-25T00:11:42;4.60;99.90
5476;DHT22;2760;50.000;9.194;2022-11-25T00:14:12;3.80;99.90
5476;DHT22;2760;50.000;9.194;2022-11-25T00:16:39;3.70;99.90
5476;DHT22;2760;50.000;9.194;2022-11-25T00:19:09;3.70;99.90
5476;DHT22;2760;50.000;9.194;2022-11-25T00:21:36;3.70;99.90
5476;DHT22;2760;50.000;9.194;2022-11-25T00:24:05;3.60;99.90
5476;DHT22;2760;50.000;9.194;2022-11-25T00:26:33;3.50;99.90
5476;DHT22;2760;50.000;9.194;2022-11-25T00:29:05;3.70;99.90
5476;DHT22;2760;50.000;9.194;2022-11-25T00:31:37;3.70;99.90
5476;DHT22;2760;50.000;9.194;2022-11-25T00:34:05;5.00;99.90
5476;DHT22;2760;50.000;9.194;2022-11-25T00:36:35;3.70;99.90
5476;DHT22;2760;50.000;9.194;2022-11-25T00:39:04;3.60;99.90
5476;DHT22;2760;50.000;9.194;2022-11-25T00:41:32;3.60;99.90
5476;DHT22;2760;50.000;9.194;2022-11-25T00:44:18;3.50;99.90
5476;DHT22;2760;50.000;9.194;2022-11-25T00:47:08;3.40;99.90
5476;DHT22;2760;50.000;9.194;2022-11-25T00:49:35;5.80;99.90
5476;DHT22;2760;50.000;9.194;2022-11-25T00:52:03;3.40;99.90
5476;DHT22;2760;50.000;9.194;2022-11-25T00:54:30;3.40;99.90
5476;DHT22;2760;50.000;9.194;2022-11-25T00:59:25;3.50;99.90
5476;DHT22;2760;50.000;9.194;2022-11-25T01:01:53;3.30;99.90
5476;DHT22;2760;50.000;9.194;2022-11-25T01:04:21;4.90;99.90
5476;DHT22;2760;50.000;9.194;2022-11-25T01:09:16;3.30;99.90
5476;DHT22;2760;50.000;9.194;2022-11-25T01:11:43;5.20;99.90
5476;DHT22;2760;50.000;9.194;2022-11-25T01:14:10;3.20;99.90
5476;DHT22;2760;50.000;9.194;2022-11-25T01:16:37;3.30;99.90
5476;DHT22;2760;50.000;9.194;2022-11-25T01:19:07;3.40;99.90
5476;DHT22;2760;50.000;9.194;2022-11-25T01:21:35;3.30;99.90
5476;DHT22;2760;50.000;9.194;2022-11-25T01:24:03;3.30;99.90
5476;DHT22;2760;50.000;9.194;2022-11-25T01:26:35;3.30;99.90
5476;DHT22;2760;50.000;9.194;2022-11-25T01:29:03;5.70;99.90
5476;DHT22;2760;50.000;9.194;2022-11-25T01:31:34;3.20;99.90
5476;DHT22;2760;50.000;9.194;2022-11-25T01:34:04;3.30;99.90
5476;DHT22;2760;50.000;9.194;2022-11-25T01:36:32;4.80;99.90
5476;DHT22;2760;50.000;9.194;2022-11-25T01:39:03;3.30;99.90
5476;DHT22;2760;50.000;9.194;2022-11-25T01:41:32;3.40;99.90
5476;DHT22;2760;50.000;9.194;2022-11-25T01:44:09;3.40;99.90
5476;DHT22;2760;50.000;9.194;2022-11-25T01:46:53;3.40;99.90
5476;DHT22;2760;50.000;9.194;2022-11-25T01:49:25;3.30;99.90
5476;DHT22;2760;50.000;9.194;2022-11-25T01:51:56;3.30;99.90
5476;DHT22;2760;50.000;9.194;2022-11-25T01:54:28;3.30;99.90
5476;DHT22;2760;50.000;9.194;2022-11-25T01:57:00;3.20;99.90
5476;DHT22;2760;50.000;9.194;2022-11-25T01:59:30;3.10;99.90
5476;DHT22;2760;50.000;9.194;2022-11-25T02:01:59;3.00;99.90
5476;DHT22;2760;50.000;9.194;2022-11-25T02:04:32;2.90;99.90
5476;DHT22;2760;50.000;9.194;2022-11-25T02:07:06;3.80;99.90
5476;DHT22;2760;50.000;9.194;2022-11-25T02:09:37;2.90;99.90
5476;DHT22;2760;50.000;9.194;2022-11-25T02:19:36;2.80;99.90
5476;DHT22;2760;50.000;9.194;2022-11-25T02:22:10;2.90;99.90
5476;DHT22;2760;50.000;9.194;2022-11-25T02:24:45;2.90;99.90
5476;DHT22;2760;50.000;9.194;2022-11-25T02:27:14;3.00;99.90
5476;DHT22;2760;50.000;9.194;2022-11-25T02:29:42;3.00;99.90
5476;DHT22;2760;50.000;9.194;2022-11-25T02:32:10;3.10;99.90
5476;DHT22;2760;50.000;9.194;2022-11-25T02:34:45;3.00;99.90
5476;DHT22;2760;50.000;9.194;2022-11-25T02:37:15;2.90;99.90
5476;DHT22;2760;50.000;9.194;2022-11-25T02:39:44;2.90;99.90
5476;DHT22;2760;50.000;9.194;2022-11-25T02:42:13;2.90;99.90
5476;DHT22;2760;50.000;9.194;2022-11-25T02:44:40;3.00;99.90
5476;DHT22;2760;50.000;9.194;2022-11-25T02:47:07;3.00;99.90
5476;DHT22;2760;50.000;9.194;2022-11-25T02:52:04;3.10;99.90
5476;DHT22;2760;50.000;9.194;2022-11-25T02:54:31;3.20;99.90
5476;DHT22;2760;50.000;9.194;2022-11-25T02:57:00;3.10;99.90
5476;DHT22;2760;50.000;9.194;2022-11-25T02:59:28;3.20;99.90
5476;DHT22;2760;50.000;9.194;2022-11-25T03:01:55;3.30;99.90
5476;DHT22;2760;50.000;9.194;2022-11-25T03:04:25;3.30;99.90
5476;DHT22;2760;50.000;9.194;2022-11-25T03:06:52;3.30;99.90
5476;DHT22;2760;50.000;9.194;2022-11-25T03:09:19;3.30;99.90
5476;DHT22;2760;50.000;9.194;2022-11-25T03:11:46;3.30;99.90
5476;DHT22;2760;50.000;9.194;2022-11-25T03:14:31;3.40;99.90
5476;DHT22;2760;50.000;9.194;2022-11-25T03:16:58;3.40;99.90
5476;DHT22;2760;50.000;9.194;2022-11-25T03:19:27;3.50;99.90
5476;DHT22;2760;50.000;9.194;2022-11-25T03:26:48;3.60;99.90
5476;DHT22;2760;50.000;9.194;2022-11-25T03:29:16;3.60;99.90
5476;DHT22;2760;50.000;9.194;2022-11-25T03:31:45;3.60;99.90
5476;DHT22;2760;50.000;9.194;2022-11-25T03:34:12;3.60;99.90
5476;DHT22;2760;50.000;9.194;2022-11-25T03:36:39;3.70;99.90
5476;DHT22;2760;50.000;9.194;2022-11-25T03:39:07;3.70;99.90
5476;DHT22;2760;50.000;9.194;2022-11-25T03:41:36;5.20;99.90
5476;DHT22;2760;50.000;9.194;2022-11-25T03:44:03;3.60;99.90
5476;DHT22;2760;50.000;9.194;2022-11-25T03:46:30;3.70;99.90
5476;DHT22;2760;50.000;9.194;2022-11-25T03:49:01;3.70;99.90
5476;DHT22;2760;50.000;9.194;2022-11-25T03:51:28;3.60;99.90
5476;DHT22;2760;50.000;9.194;2022-11-25T03:53:58;3.60;99.90
5476;DHT22;2760;50.000;9.194;2022-11-25T03:56:25;3.60;99.90
5476;DHT22;2760;50.000;9.194;2022-11-25T03:58:51;5.10;99.90
5476;DHT22;2760;50.000;9.194;2022-11-25T04:01:19;3.60;99.90
5476;DHT22;2760;50.000;9.194;2022-11-25T04:03:46;3.60;99.90
5476;DHT22;2760;50.000;9.194;2022-11-25T04:06:14;3.60;99.90
5476;DHT22;2760;50.000;9.194;2022-11-25T04:08:46;3.60;99.90
5476;DHT22;2760;50.000;9.194;2022-11-25T04:11:14;3.80;99.90
5476;DHT22;2760;50.000;9.194;2022-11-25T04:13:44;3.70;99.90
5476;DHT22;2760;50.000;9.194;2022-11-25T04:16:17;5.50;99.90
5476;DHT22;2760;50.000;9.194;2022-11-25T04:18:45;3.60;99.90
5476;DHT22;2760;50.000;9.194;2022-11-25T04:21:13;3.50;99.90
5476;DHT22;2760;50.000;9.194;2022-11-25T04:23:41;3.60;99.90
5476;DHT22;2760;50.000;9.194;2022-11-25T04:26:11;5.40;99.90
5476;DHT22;2760;50.000;9.194;2022-11-25T04:28:39;3.60;99.90
5476;DHT22;2760;50.000;9.194;2022-11-25T04:31:07;5.60;99.90
5476;DHT22;2760;50.000;9.194;2022-11-25T04:36:05;3.60;99.90
5476;DHT22;2760;50.000;9.194;2022-11-25T04:38:34;3.60;99.90
5476;DHT22;2760;50.000;9.194;2022-11-25T04:41:02;3.50;99.90
5476;DHT22;2760;50.000;9.194;2022-11-25T04:43:35;5.90;99.90
5476;DHT22;2760;50.000;9.194;2022-11-25T04:46:09;3.50;99.90
5476;DHT22;2760;50.000;9.194;2022-11-25T04:48:39;3.50;99.90
5476;DHT22;2760;50.000;9.194;2022-11-25T04:51:07;3.60;99.90
5476;DHT22;2760;50.000;9.194;2022-11-25T04:53:36;3.60;99.90
5476;DHT22;2760;50.000;9.194;2022-11-25T04:56:03;3.60;99.90
5476;DHT22;2760;50.000;9.194;2022-11-25T04:58:38;3.70;99.90
5476;DHT22;2760;50.000;9.194;2022-11-25T05:01:19;3.60;99.90
5476;DHT22;2760;50.000;9.194;2022-11-25T05:03:49;3.60;99.90
5476;DHT22;2760;50.000;9.194;2022-11-25T05:06:16;3.70;99.90
5476;DHT22;2760;50.000;9.194;2022-11-25T05:08:47;3.60;99.90
5476;DHT22;2760;50.000;9.194;2022-11-25T05:11:14;3.70;99.90
5476;DHT22;2760;50.000;9.194;2022-11-25T05:13:43;3.80;99.90
5476;DHT22;2760;50.000;9.194;2022-11-25T05:16:11;6.10;99.90
5476;DHT22;2760;50.000;9.194;2022-11-25T05:18:39;3.80;99.90
5476;DHT22;2760;50.000;9.194;2022-11-25T05:21:07;6.30;99.90
5476;DHT22;2760;50.000;9.194;2022-11-25T05:23:38;3.90;99.90
5476;DHT22;2760;50.000;9.194;2022-11-25T05:26:06;3.90;99.90
5476;DHT22;2760;50.000;9.194;2022-11-25T05:28:40;3.80;99.90
5476;DHT22;2760;50.000;9.194;2022-11-25T05:31:10;3.80;99.90
5476;DHT22;2760;50.000;9.194;2022-11-25T05:33:38;3.80;99.90
5476;DHT22;2760;50.000;9.194;2022-11-25T05:36:09;3.80;99.90
5476;DHT22;2760;50.000;9.194;2022-11-25T05:38:44;3.80;99.90
5476;DHT22;2760;50.000;9.194;2022-11-25T05:41:16;3.80;99.90
5476;DHT22;2760;50.000;9.194;2022-11-25T05:43:44;3.80;99.90
5476;DHT22;2760;50.000;9.194;2022-11-25T05:48:46;3.90;99.90
5476;DHT22;2760;50.000;9.194;2022-11-25T05:51:13;4.00;99.90
5476;DHT22;2760;50.000;9.194;2022-11-25T05:53:41;4.00;99.90
5476;DHT22;2760;50.000;9.194;2022-11-25T05:56:09;3.90;99.90
5476;DHT22;2760;50.000;9.194;2022-11-25T05:58:52;3.90;99.90
5476;DHT22;2760;50.000;9.194;2022-11-25T06:01:21;3.90;99.90
5476;DHT22;2760;50.000;9.194;2022-11-25T06:03:48;4.10;99.90
5476;DHT22;2760;50.000;9.194;2022-11-25T06:06:17;4.10;99.90
5476;DHT22;2760;50.000;9.194;2022-11-25T06:08:45;4.10;99.90
5476;DHT22;2760;50.000;9.194;2022-11-25T06:11:14;4.20;99.90
5476;DHT22;2760;50.000;9.194;2022-11-25T06:13:42;4.20;99.90
5476;DHT22;2760;50.000;9.194;2022-11-25T06:16:13;4.10;99.90
5476;DHT22;2760;50.000;9.194;2022-11-25T06:18:43;4.20;99.90
5476;DHT22;2760;50.000;9.194;2022-11-25T06:21:12;4.30;99.90
5476;DHT22;2760;50.000;9.194;2022-11-25T06:23:39;4.30;99.90
5476;DHT22;2760;50.000;9.194;2022-11-25T06:26:09;4.30;99.90
5476;DHT22;2760;50.000;9.194;2022-11-25T06:28:38;4.30;99.90
5476;DHT22;2760;50.000;9.194;2022-11-25T06:31:07;4.30;99.90
5476;DHT22;2760;50.000;9.194;2022-11-25T06:33:41;6.70;99.90
5476;DHT22;2760;50.000;9.194;2022-11-25T06:36:09;4.40;99.90
5476;DHT22;2760;50.000;9.194;2022-11-25T06:38:42;4.30;99.90
5476;DHT22;2760;50.000;9.194;2022-11-25T06:41:09;4.30;99.90
5476;DHT22;2760;50.000;9.194;2022-11-25T06:43:37;4.30;99.90
5476;DHT22;2760;50.000;9.194;2022-11-25T06:46:05;4.30;99.90
5476;DHT22;2760;50.000;9.194;2022-11-25T06:48:33;4.20;99.90
5476;DHT22;2760;50.000;9.194;2022-11-25T06:51:03;4.20;99.90
5476;DHT22;2760;50.000;9.194;2022-11-25T06:53:31;4.30;99.90
5476;DHT22;2760;50.000;9.194;2022-11-25T06:56:05;4.40;99.90
5476;DHT22;2760;50.000;9.194;2022-11-25T06:58:34;4.50;99.90
5476;DHT22;2760;50.000;9.194;2022-11-25T07:01:02;4.50;99.90
5476;DHT22;2760;50.000;9.194;2022-11-25T07:03:29;4.50;99.90
5476;DHT22;2760;50.000;9.194;2022-11-25T07:05:57;4.50;99.90
5476;DHT22;2760;50.000;9.194;2022-11-25T07:08:26;4.60;99.90
5476;DHT22;2760;50.000;9.194;2022-11-25T07:10:53;4.60;99.90
5476;DHT22;2760;50.000;9.194;2022-11-25T07:13:20;4.60;99.90
5476;DHT22;2760;50.000;9.194;2022-11-25T07:15:47;4.00;99.90
5476;DHT22;2760;50.000;9.194;2022-11-25T07:18:14;6.20;99.90
5476;DHT22;2760;50.000;9.194;2022-11-25T07:20:41;4.70;99.90
5476;DHT22;2760;50.000;9.194;2022-11-25T07:23:08;4.80;99.90
5476;DHT22;2760;50.000;9.194;2022-11-25T07:25:37;5.00;99.90
5476;DHT22;2760;50.000;9.194;2022-11-25T07:28:03;4.80;99.90
5476;DHT22;2760;50.000;9.194;2022-11-25T07:30:30;4.70;99.90
5476;DHT22;2760;50.000;9.194;2022-11-25T07:32:58;4.40;99.90
5476;DHT22;2760;50.000;9.194;2022-11-25T07:35:25;4.70;99.90
5476;DHT22;2760;50.000;9.194;2022-11-25T07:37:52;4.90;99.90
5476;DHT22;2760;50.000;9.194;2022-11-25T07:40:18;4.80;99.90
5476;DHT22;2760;50.000;9.194;2022-11-25T07:42:47;6.10;99.90
5476;DHT22;2760;50.000;9.194;2022-11-25T07:45:15;7.00;99.90
5476;DHT22;2760;50.000;9.194;2022-11-25T07:47:44;4.90;99.90
5476;DHT22;2760;50.000;9.194;2022-11-25T07:50:12;5.00;99.90
5476;DHT22;2760;50.000;9.194;2022-11-25T07:52:39;7.20;99.90
5476;DHT22;2760;50.000;9.194;2022-11-25T07:55:07;5.00;99.90
5476;DHT22;2760;50.000;9.194;2022-11-25T07:57:35;4.90;99.90
5476;DHT22;2760;50.000;9.194;2022-11-25T08:00:06;6.80;99.90
5476;DHT22;2760;50.000;9.194;2022-11-25T08:02:37;5.10;99.90
5476;DHT22;2760;50.000;9.194;2022-11-25T08:05:05;5.10;99.90
5476;DHT22;2760;50.000;9.194;2022-11-25T08:07:32;3.00;99.90
5476;DHT22;2760;50.000;9.194;2022-11-25T08:09:59;5.20;99.90
5476;DHT22;2760;50.000;9.194;2022-11-25T08:12:26;5.90;99.90
5476;DHT22;2760;50.000;9.194;2022-11-25T08:14:53;5.10;99.90
5476;DHT22;2760;50.000;9.194;2022-11-25T08:17:22;6.50;99.90
5476;DHT22;2760;50.000;9.194;2022-11-25T08:19:49;6.10;99.90
5476;DHT22;2760;50.000;9.194;2022-11-25T08:22:16;5.20;99.90
5476;DHT22;2760;50.000;9.194;2022-11-25T08:24:43;7.50;99.90
5476;DHT22;2760;50.000;9.194;2022-11-25T08:27:10;5.40;99.90
5476;DHT22;2760;50.000;9.194;2022-11-25T08:29:37;5.30;99.90
5476;DHT22;2760;50.000;9.194;2022-11-25T08:32:04;5.60;99.90
5476;DHT22;2760;50.000;9.194;2022-11-25T08:34:34;7.60;99.90
5476;DHT22;2760;50.000;9.194;2022-11-25T08:37:03;6.70;99.90
5476;DHT22;2760;50.000;9.194;2022-11-25T08:39:33;5.60;99.90
5476;DHT22;2760;50.000;9.194;2022-11-25T08:42:01;5.60;99.90
5476;DHT22;2760;50.000;9.194;2022-11-25T08:44:29;5.60;99.90
5476;DHT22;2760;50.000;9.194;2022-11-25T08:46:56;6.90;99.90
5476;DHT22;2760;50.000;9.194;2022-11-25T08:49:23;6.90;99.90
5476;DHT22;2760;50.000;9.194;2022-11-25T08:51:52;8.20;99.90
5476;DHT22;2760;50.000;9.194;2022-11-25T08:54:20;5.80;99.90
5476;DHT22;2760;50.000;9.194;2022-11-25T08:56:47;7.00;99.90
5476;DHT22;2760;50.000;9.194;2022-11-25T08:59:14;5.80;99.90
5476;DHT22;2760;50.000;9.194;2022-11-25T09:01:41;5.80;99.90
5476;DHT22;2760;50.000;9.194;2022-11-25T09:04:08;5.90;99.90
5476;DHT22;2760;50.000;9.194;2022-11-25T09:06:37;6.40;99.90
5476;DHT22;2760;50.000;9.194;2022-11-25T09:09:06;3.90;99.90
5476;DHT22;2760;50.000;9.194;2022-11-25T09:11:32;5.80;99.90
5476;DHT22;2760;50.000;9.194;2022-11-25T09:14:01;5.70;99.90
5476;DHT22;2760;50.000;9.194;2022-11-25T09:16:28;5.70;99.90
5476;DHT22;2760;50.000;9.194;2022-11-25T09:18:55;7.30;99.90
5476;DHT22;2760;50.000;9.194;2022-11-25T09:21:22;6.90;99.90
5476;DHT22;2760;50.000;9.194;2022-11-25T09:23:51;7.90;99.90
5476;DHT22;2760;50.000;9.194;2022-11-25T09:26:25;6.10;99.90
5476;DHT22;2760;50.000;9.194;2022-11-25T09:28:52;9.10;99.90
5476;DHT22;2760;50.000;9.194;2022-11-25T09:31:20;6.10;99.90
5476;DHT22;2760;50.000;9.194;2022-11-25T09:33:47;5.90;99.90
5476;DHT22;2760;50.000;9.194;2022-11-25T09:36:16;6.10;99.90
5476;DHT22;2760;50.000;9.194;2022-11-25T09:38:43;6.20;99.90
5476;DHT22;2760;50.000;9.194;2022-11-25T09:41:22;6.10;99.90
5476;DHT22;2760;50.000;9.194;2022-11-25T09:44:13;6.20;99.90
5476;DHT22;2760;50.000;9.194;2022-11-25T09:47:13;6.60;99.90
5476;DHT22;2760;50.000;9.194;2022-11-25T09:49:54;6.60;99.90
5476;DHT22;2760;50.000;9.194;2022-11-25T09:52:32;8.30;99.90
5476;DHT22;2760;50.000;9.194;2022-11-25T09:55:04;7.70;99.90
5476;DHT22;2760;50.000;9.194;2022-11-25T09:57:42;6.60;99.90
5476;DHT22;2760;50.000;9.194;2022-11-25T10:00:14;7.00;99.90
5476;DHT22;2760;50.000;9.194;2022-11-25T10:02:46;6.60;99.90
5476;DHT22;2760;50.000;9.194;2022-11-25T10:05:20;6.70;99.90
5476;DHT22;2760;50.000;9.194;2022-11-25T10:07:52;6.60;99.90
5476;DHT22;2760;50.000;9.194;2022-11-25T10:10:25;6.70;99.90
5476;DHT22;2760;50.000;9.194;2022-11-25T10:12:55;6.80;99.90
5476;DHT22;2760;50.000;9.194;2022-11-25T10:15:26;8.70;99.90
5476;DHT22;2760;50.000;9.194;2022-11-25T10:17:59;4.80;99.90
5476;DHT22;2760;50.000;9.194;2022-11-25T10:20:30;6.90;99.90
5476;DHT22;2760;50.000;9.194;2022-11-25T10:23:00;7.00;99.90
5476;DHT22;2760;50.000;9.194;2022-11-25T10:25:30;6.90;99.90
5476;DHT22;2760;50.000;9.194;2022-11-25T10:28:02;8.20;99.90
5476;DHT22;2760;50.000;9.194;2022-11-25T10:30:35;7.00;99.90
5476;DHT22;2760;50.000;9.194;2022-11-25T10:33:11;8.30;99.90
5476;DHT22;2760;50.000;9.194;2022-11-25T10:35:44;8.50;99.90
5476;DHT22;2760;50.000;9.194;2022-11-25T10:38:19;9.30;99.90
5476;DHT22;2760;50.000;9.194;2022-11-25T10:40:49;7.00;99.90
5476;DHT22;2760;50.000;9.194;2022-11-25T10:43:17;8.30;99.90
5476;DHT22;2760;50.000;9.194;2022-11-25T10:45:48;9.20;99.90
5476;DHT22;2760;50.000;9.194;2022-11-25T10:48:24;5.60;99.90
5476;DHT22;2760;50.000;9.194;2022-11-25T10:51:04;6.60;99.90
5476;DHT22;2760;50.000;9.194;2022-11-25T10:53:35;7.00;99.90
5476;DHT22;2760;50.000;9.194;2022-11-25T10:56:09;7.00;99.90
5476;DHT22;2760;50.000;9.194;2022-11-25T10:58:38;7.00;99.90
5476;DHT22;2760;50.000;9.194;2022-11-25T11:01:20;7.50;99.90
5476;DHT22;2760;50.000;9.194;2022-11-25T11:03:51;8.30;99.90
5476;DHT22;2760;50.000;9.194;2022-11-25T11:06:30;7.50;99.90
5476;DHT22;2760;50.000;9.194;2022-11-25T11:08:57;9.20;99.90
5476;DHT22;2760;50.000;9.194;2022-11-25T11:11:24;7.50;99.90
5476;DHT22;2760;50.000;9.194;2022-11-25T11:13:59;8.30;99.90
5476;DHT22;2760;50.000;9.194;2022-11-25T11:16:40;7.50;99.90
5476;DHT22;2760;50.000;9.194;2022-11-25T11:19:20;9.50;99.90
5476;DHT22;2760;50.000;9.194;2022-11-25T11:21:48;9.50;99.90
5476;DHT22;2760;50.000;9.194;2022-11-25T11:24:27;7.80;99.90
5476;DHT22;2760;50.000;9.194;2022-11-25T11:27:04;7.80;99.90
5476;DHT22;2760;50.000;9.194;2022-11-25T11:29:31;7.80;99.90
5476;DHT22;2760;50.000;9.194;2022-11-25T11:32:04;9.00;99.90
5476;DHT22;2760;50.000;9.194;2022-11-25T11:34:51;7.90;99.90
5476;DHT22;2760;50.000;9.194;2022-11-25T11:37:32;7.90;99.90
5476;DHT22;2760;50.000;9.194;2022-11-25T11:43:13;7.90;99.90
5476;DHT22;2760;50.000;9.194;2022-11-25T11:46:01;8.00;99.90
5476;DHT22;2760;50.000;9.194;2022-11-25T11:48:41;9.10;99.90
5476;DHT22;2760;50.000;9.194;2022-11-25T11:51:18;9.80;99.90
5476;DHT22;2760;50.000;9.194;2022-11-25T11:53:55;8.80;99.90
5476;DHT22;2760;50.000;9.194;2022-11-25T11:56:31;6.40;99.90
5476;DHT22;2760;50.000;9.194;2022-11-25T11:59:13;8.00;99.90
5476;DHT22;2760;50.000;9.194;2022-11-25T12:01:52;8.10;99.90
5476;DHT22;2760;50.000;9.194;2022-11-25T12:04:27;8.10;99.90
5476;DHT22;2760;50.000;9.194;2022-11-25T12:07:00;9.60;99.90
5476;DHT22;2760;50.000;9.194;2022-11-25T12:09:30;8.90;99.90
5476;DHT22;2760;50.000;9.194;2022-11-25T12:12:03;8.80;99.90
5476;DHT22;2760;50.000;9.194;2022-11-25T12:14:35;8.30;99.90
5476;DHT22;2760;50.000;9.194;2022-11-25T12:17:13;8.50;99.90
5476;DHT22;2760;50.000;9.194;2022-11-25T12:19:50;9.10;99.90
5476;DHT22;2760;50.000;9.194;2022-11-25T12:22:21;8.70;99.90
5476;DHT22;2760;50.000;9.194;2022-11-25T12:24:57;9.90;99.90
5476;DHT22;2760;50.000;9.194;2022-11-25T12:27:32;9.90;99.90
5476;DHT22;2760;50.000;9.194;2022-11-25T12:30:03;8.90;99.90
5476;DHT22;2760;50.000;9.194;2022-11-25T12:32:55;9.00;99.90
5476;DHT22;2760;50.000;9.194;2022-11-25T12:35:44;9.20;99.90
5476;DHT22;2760;50.000;9.194;2022-11-25T12:38:24;7.30;99.90
5476;DHT22;2760;50.000;9.194;2022-11-25T12:41:00;9.10;99.90
5476;DHT22;2760;50.000;9.194;2022-11-25T12:43:35;9.10;99.90
5476;DHT22;2760;50.000;9.194;2022-11-25T12:46:12;9.10;99.90
5476;DHT22;2760;50.000;9.194;2022-11-25T12:48:42;9.20;99.90
5476;DHT22;2760;50.000;9.194;2022-11-25T12:51:19;10.70;99.90
5476;DHT22;2760;50.000;9.194;2022-11-25T12:54:00;9.20;99.90
5476;DHT22;2760;50.000;9.194;2022-11-25T12:56:45;11.50;99.90
5476;DHT22;2760;50.000;9.194;2022-11-25T12:59:32;7.50;99.90
5476;DHT22;2760;50.000;9.194;2022-11-25T13:02:24;10.20;99.90
5476;DHT22;2760;50.000;9.194;2022-11-25T13:05:17;9.30;99.90
5476;DHT22;2760;50.000;9.194;2022-11-25T13:07:59;10.60;99.90
5476;DHT22;2760;50.000;9.194;2022-11-25T13:10:47;10.40;99.90
5476;DHT22;2760;50.000;9.194;2022-11-25T13:13:44;9.30;99.90
5476;DHT22;2760;50.000;9.194;2022-11-25T13:16:13;11.00;99.90
5476;DHT22;2760;50.000;9.194;2022-11-25T13:18:42;10.40;99.90
5476;DHT22;2760;50.000;9.194;2022-11-25T13:21:10;11.10;99.90
5476;DHT22;2760;50.000;9.194;2022-11-25T13:23:48;7.80;99.90
5476;DHT22;2760;50.000;9.194;2022-11-25T13:26:35;10.70;99.90
5476;DHT22;2760;50.000;9.194;2022-11-25T13:31:56;11.90;99.90
5476;DHT22;2760;50.000;9.194;2022-11-25T13:34:26;11.10;99.90
5476;DHT22;2760;50.000;9.194;2022-11-25T13:36:54;10.90;99.90
5476;DHT22;2760;50.000;9.194;2022-11-25T13:39:33;11.70;99.90
5476;DHT22;2760;50.000;9.194;2022-11-25T13:42:03;11.70;99.90
5476;DHT22;2760;50.000;9.194;2022-11-25T13:44:32;9.60;99.90
5476;DHT22;2760;50.000;9.194;2022-11-25T13:47:22;10.30;99.90
5476;DHT22;2760;50.000;9.194;2022-11-25T13:49:51;9.70;99.90
5476;DHT22;2760;50.000;9.194;2022-11-25T13:52:32;9.70;99.90
5476;DHT22;2760;50.000;9.194;2022-11-25T13:55:07;11.20;99.90
5476;DHT22;2760;50.000;9.194;2022-11-25T13:57:37;8.80;99.90
5476;DHT22;2760;50.000;9.194;2022-11-25T14:00:24;9.80;99.90
5476;DHT22;2760;50.000;9.194;2022-11-25T14:02:53;9.70;99.90
5476;DHT22;2760;50.000;9.194;2022-11-25T14:05:59;11.80;99.90
5476;DHT22;2760;50.000;9.194;2022-11-25T14:08:36;10.90;99.90
5476;DHT22;2760;50.000;9.194;2022-11-25T14:14:24;9.80;99.90
5476;DHT22;2760;50.000;9.194;2022-11-25T14:17:04;9.80;99.90
5476;DHT22;2760;50.000;9.194;2022-11-25T14:20:08;10.90;99.90
5476;DHT22;2760;50.000;9.194;2022-11-25T14:23:01;8.10;99.90
5476;DHT22;2760;50.000;9.194;2022-11-25T14:25:43;9.70;99.90
5476;DHT22;2760;50.000;9.194;2022-11-25T14:28:21;10.30;99.90
5476;DHT22;2760;50.000;9.194;2022-11-25T14:30:52;12.10;99.90
5476;DHT22;2760;50.000;9.194;2022-11-25T14:33:25;10.60;99.90
5476;DHT22;2760;50.000;9.194;2022-11-25T14:36:00;7.50;99.90
5476;DHT22;2760;50.000;9.194;2022-11-25T14:38:36;11.00;99.90
5476;DHT22;2760;50.000;9.194;2022-11-25T14:41:07;9.80;99.90
5476;DHT22;2760;50.000;9.194;2022-11-25T14:43:39;12.20;99.90
5476;DHT22;2760;50.000;9.194;2022-11-25T14:46:09;10.70;99.90
5476;DHT22;2760;50.000;9.194;2022-11-25T14:48:40;9.70;99.90
5476;DHT22;2760;50.000;9.194;2022-11-25T14:51:09;9.80;99.90
5476;DHT22;2760;50.000;9.194;2022-11-25T14:53:43;12.20;99.90
5476;DHT22;2760;50.000;9.194;2022-11-25T14:56:11;9.60;99.90
5476;DHT22;2760;50.000;9.194;2022-11-25T14:58:39;10.70;99.90
5476;DHT22;2760;50.000;9.194;2022-11-25T15:01:16;9.60;99.90
5476;DHT22;2760;50.000;9.194;2022-11-25T15:03:46;12.00;99.90
5476;DHT22;2760;50.000;9.194;2022-11-25T15:06:14;11.90;99.90
5476;DHT22;2760;50.000;9.194;2022-11-25T15:08:44;10.80;99.90
5476;DHT22;2760;50.000;9.194;2022-11-25T15:11:14;10.80;99.90
5476;DHT22;2760;50.000;9.194;2022-11-25T15:13:43;9.50;99.90
5476;DHT22;2760;50.000;9.194;2022-11-25T15:16:13;9.40;99.90
5476;DHT22;2760;50.000;9.194;2022-11-25T15:18:48;10.00;99.90
5476;DHT22;2760;50.000;9.194;2022-11-25T15:21:18;10.90;99.90
5476;DHT22;2760;50.000;9.194;2022-11-25T15:23:47;11.70;99.90
5476;DHT22;2760;50.000;9.194;2022-11-25T15:26:17;9.20;99.90
5476;DHT22;2760;50.000;9.194;2022-11-25T15:28:45;10.70;99.90
5476;DHT22;2760;50.000;9.194;2022-11-25T15:31:17;10.70;99.90
5476;DHT22;2760;50.000;9.194;2022-11-25T15:33:44;11.40;99.90
5476;DHT22;2760;50.000;9.194;2022-11-25T15:36:12;8.10;99.90
5476;DHT22;2760;50.000;9.194;2022-11-25T15:38:41;10.70;99.90
5476;DHT22;2760;50.000;9.194;2022-11-25T15:41:18;9.00;99.90
5476;DHT22;2760;50.000;9.194;2022-11-25T15:43:47;8.90;99.90
5476;DHT22;2760;50.000;9.194;2022-11-25T15:46:16;9.00;99.90
5476;DHT22;2760;50.000;9.194;2022-11-25T15:48:45;10.40;99.90
5476;DHT22;2760;50.000;9.194;2022-11-25T15:51:21;9.40;99.90
5476;DHT22;2760;50.000;9.194;2022-11-25T15:53:52;8.80;99.90
5476;DHT22;2760;50.000;9.194;2022-11-25T15:56:23;10.90;99.90
5476;DHT22;2760;50.000;9.194;2022-11-25T15:58:51;10.80;99.90
5476;DHT22;2760;50.000;9.194;2022-11-25T16:01:21;11.30;99.90
5476;DHT22;2760;50.000;9.194;2022-11-25T16:03:50;8.60;99.90
5476;DHT22;2760;50.000;9.194;2022-11-25T16:06:20;8.50;99.90
5476;DHT22;2760;50.000;9.194;2022-11-25T16:08:52;8.50;99.90
5476;DHT22;2760;50.000;9.194;2022-11-25T16:11:22;8.40;99.90
5476;DHT22;2760;50.000;9.194;2022-11-25T16:13:52;9.50;99.90
5476;DHT22;2760;50.000;9.194;2022-11-25T16:16:22;9.60;99.90
5476;DHT22;2760;50.000;9.194;2022-11-25T16:18:56;8.30;99.90
5476;DHT22;2760;50.000;9.194;2022-11-25T16:21:44;8.30;99.90
5476;DHT22;2760;50.000;9.194;2022-11-25T16:27:17;8.20;99.90
5476;DHT22;2760;50.000;9.194;2022-11-25T16:29:50;8.20;99.90
5476;DHT22;2760;50.000;9.194;2022-11-25T16:32:20;8.10;99.90
5476;DHT22;2760;50.000;9.194;2022-11-25T16:34:47;9.70;99.90
5476;DHT22;2760;50.000;9.194;2022-11-25T16:37:14;8.20;99.90
5476;DHT22;2760;50.000;9.194;2022-11-25T16:39:43;9.60;99.90
5476;DHT22;2760;50.000;9.194;2022-11-25T16:42:17;8.90;99.90
5476;DHT22;2760;50.000;9.194;2022-11-25T16:44:46;8.10;99.90
5476;DHT22;2760;50.000;9.194;2022-11-25T16:47:15;8.00;99.90
5476;DHT22;2760;50.000;9.194;2022-11-25T16:49:42;9.60;99.90
5476;DHT22;2760;50.000;9.194;2022-11-25T16:52:10;9.90;99.90
5476;DHT22;2760;50.000;9.194;2022-11-25T16:54:38;10.50;99.90
5476;DHT22;2760;50.000;9.194;2022-11-25T16:57:05;8.00;99.90
5476;DHT22;2760;50.000;9.194;2022-11-25T16:59:38;10.60;99.90
5476;DHT22;2760;50.000;9.194;2022-11-25T17:02:14;8.00;99.90
5476;DHT22;2760;50.000;9.194;2022-11-25T17:04:42;8.00;99.90
5476;DHT22;2760;50.000;9.194;2022-11-25T17:07:10;8.10;99.90
5476;DHT22;2760;50.000;9.194;2022-11-25T17:09:38;10.40;99.90
5476;DHT22;2760;50.000;9.194;2022-11-25T17:12:13;9.70;99.90
5476;DHT22;2760;50.000;9.194;2022-11-25T17:14:44;6.70;99.90
5476;DHT22;2760;50.000;9.194;2022-11-25T17:17:17;10.50;99.90
5476;DHT22;2760;50.000;9.194;2022-11-25T17:19:46;8.10;99.90
5476;DHT22;2760;50.000;9.194;2022-11-25T17:22:16;7.80;99.90
5476;DHT22;2760;50.000;9.194;2022-11-25T17:24:44;9.60;99.90